Time;durP1;ratioP1;P1;durP2;ratioP2;P2;SDS_P1;SDS_P2;PMS_P1;PMS_P2;Temp;Humidity;BMP_temperature;BMP_pressure;BME280_temperature;BME280_humidity;BME280_pressure;Samples;Min_cycle;Max_cycle;Signal;HPM_P1;HPM_P2
2021/04/13 00:01:13;;;;;;;6.28;1.30;;;;;;;;;;5018493;28;20380;-74
2021/04/13 00:03:39;;;;;;;6.07;1.08;;;;;;;;;;5010848;28;20041;-73
2021/04/13 00:06:05;;;;;;;4.00;0.82;;;;;;;;;;5008635;28;20598;-74
2021/04/13 00:08:31;;;;;;;9.18;2.78;;;;;;;;;;5017738;28;20029;-73
2021/04/13 00:10:59;;;;;;;4.45;1.20;;;;;;;;;;5018310;28;20478;-74
2021/04/13 00:13:25;;;;;;;9.10;2.15;;;;;;;;;;5030845;28;20037;-74
2021/04/13 00:15:55;;;;;;;3.55;1.17;;;;;;;;;;5028652;28;20034;-73
2021/04/13 00:18:26;;;;;;;8.88;1.02;;;;;;;;;;5016675;28;20037;-73
2021/04/13 00:21:01;;;;;;;8.18;1.05;;;;;;;;;;5019453;28;20021;-73
2021/04/13 00:23:27;;;;;;;5.65;0.88;;;;;;;;;;5011107;28;20021;-74
2021/04/13 00:25:55;;;;;;;9.35;0.98;;;;;;;;;;5016872;28;20087;-74
2021/04/13 00:28:27;;;;;;;5.95;1.23;;;;;;;;;;5016008;28;20025;-74
2021/04/13 00:30:55;;;;;;;7.82;1.15;;;;;;;;;;5020229;28;20109;-73
2021/04/13 00:33:23;;;;;;;6.35;1.10;;;;;;;;;;5013936;28;20050;-73
2021/04/13 00:36:10;;;;;;;5.88;1.40;;;;;;;;;;5009721;28;20029;-73
2021/04/13 00:38:44;;;;;;;5.55;1.20;;;;;;;;;;5007183;28;20038;-73
2021/04/13 00:41:19;;;;;;;18.35;2.47;;;;;;;;;;4998210;28;20041;-74
2021/04/13 00:43:48;;;;;;;4.50;0.82;;;;;;;;;;5010990;28;20072;-73
2021/04/13 00:46:19;;;;;;;6.72;1.08;;;;;;;;;;5019299;28;20430;-74
2021/04/13 00:48:45;;;;;;;3.28;0.70;;;;;;;;;;5022390;28;20039;-74
2021/04/13 00:51:22;;;;;;;6.22;1.77;;;;;;;;;;5015751;28;20034;-74
2021/04/13 00:53:50;;;;;;;11.07;1.50;;;;;;;;;;5015268;28;20048;-73
2021/04/13 00:56:18;;;;;;;7.30;1.42;;;;;;;;;;5002558;28;20038;-74
2021/04/13 00:58:46;;;;;;;4.63;1.20;;;;;;;;;;4999811;28;20042;-73
2021/04/13 01:01:17;;;;;;;3.65;0.90;;;;;;;;;;5018327;28;20104;-74
2021/04/13 01:03:53;;;;;;;6.20;1.10;;;;;;;;;;5006623;28;20101;-74
2021/04/13 01:06:21;;;;;;;8.23;1.10;;;;;;;;;;5009594;28;20813;-74
2021/04/13 01:08:47;;;;;;;8.27;0.82;;;;;;;;;;5024139;28;20107;-73
2021/04/13 01:11:16;;;;;;;5.25;0.63;;;;;;;;;;5020239;28;20076;-74
2021/04/13 01:13:42;;;;;;;9.18;1.05;;;;;;;;;;5018153;28;20049;-74
2021/04/13 01:16:08;;;;;;;9.05;2.35;;;;;;;;;;5006590;28;20119;-74
2021/04/13 01:18:37;;;;;;;11.40;1.15;;;;;;;;;;5020098;28;20041;-74
2021/04/13 01:21:26;;;;;;;6.95;0.90;;;;;;;;;;5008675;28;20487;-73
2021/04/13 01:23:57;;;;;;;9.57;0.93;;;;;;;;;;5030093;28;20023;-74
2021/04/13 01:26:22;;;;;;;;;;;;;;;;;;5036924;28;20022;-74
2021/04/13 01:28:51;;;;;;;7.63;1.25;;;;;;;;;;5023471;28;19905;-73
2021/04/13 01:34:10;;;;;;;6.47;0.98;;;;;;;;;;5009926;28;20041;-74
2021/04/13 01:36:41;;;;;;;4.93;0.93;;;;;;;;;;5019551;28;20452;-74
2021/04/13 01:39:11;;;;;;;7.20;1.63;;;;;;;;;;5019312;28;20030;-74
2021/04/13 01:41:57;;;;;;;6.72;1.75;;;;;;;;;;5013469;28;20033;-73
2021/04/13 01:44:30;;;;;;;6.63;1.20;;;;;;;;;;5006631;28;20026;-74
2021/04/13 01:46:57;;;;;;;10.02;2.17;;;;;;;;;;5010811;28;20033;-74
2021/04/13 01:49:23;;;;;;;6.13;1.40;;;;;;;;;;4995633;28;20482;-74
2021/04/13 01:51:50;;;;;;;7.55;1.77;;;;;;;;;;5018955;28;20030;-71
2021/04/13 01:54:16;;;;;;;4.63;1.00;;;;;;;;;;5011546;28;20443;-71
2021/04/13 01:56:52;;;;;;;9.45;1.02;;;;;;;;;;5023117;28;20072;-74
2021/04/13 01:59:23;;;;;;;3.35;1.00;;;;;;;;;;5025012;28;20124;-72
2021/04/13 02:02:00;;;;;;;8.45;0.88;;;;;;;;;;5007375;28;20035;-72
2021/04/13 02:04:30;;;;;;;5.45;1.10;;;;;;;;;;5002710;28;20025;-72
2021/04/13 02:07:16;;;;;;;10.75;1.30;;;;;;;;;;5014270;28;20032;-74
2021/04/13 02:09:46;;;;;;;4.10;1.02;;;;;;;;;;5010915;28;20029;-74
2021/04/13 02:12:17;;;;;;;7.22;1.00;;;;;;;;;;5010617;28;20030;-73
2021/04/13 02:14:50;;;;;;;6.93;0.88;;;;;;;;;;5003523;28;20112;-73
2021/04/13 02:17:20;;;;;;;3.92;1.05;;;;;;;;;;5014181;28;20112;-73
2021/04/13 02:19:48;;;;;;;8.90;1.23;;;;;;;;;;5012767;28;20032;-74
2021/04/13 02:22:15;;;;;;;8.43;0.90;;;;;;;;;;5009754;28;20712;-74
2021/04/13 02:24:41;;;;;;;10.38;1.15;;;;;;;;;;5013078;28;20018;-74
2021/04/13 02:27:15;;;;;;;5.65;1.17;;;;;;;;;;5026673;28;20025;-72
2021/04/13 02:29:43;;;;;;;5.72;0.93;;;;;;;;;;5018089;28;20033;-72
2021/04/13 02:32:20;;;;;;;8.93;0.80;;;;;;;;;;5005733;28;20368;-71
2021/04/13 02:34:51;;;;;;;9.13;1.88;;;;;;;;;;5010802;28;20462;-71
2021/04/13 02:37:17;;;;;;;;;;;;;;;;;;5020118;28;20026;-72
2021/04/13 02:39:43;;;;;;;8.88;1.67;;;;;;;;;;5020741;28;19909;-72
2021/04/13 02:42:17;;;;;;;9.35;1.17;;;;;;;;;;5012158;28;20080;-74
2021/04/13 02:44:43;;;;;;;4.60;1.98;;;;;;;;;;5021760;28;20045;-74
2021/04/13 02:47:13;;;;;;;8.02;1.42;;;;;;;;;;5017698;28;20034;-74
2021/04/13 02:49:40;;;;;;;5.50;1.20;;;;;;;;;;5010468;28;20014;-74
2021/04/13 02:52:08;;;;;;;5.53;1.08;;;;;;;;;;5006305;28;20058;-74
2021/04/13 02:54:37;;;;;;;9.00;1.38;;;;;;;;;;5008453;28;20025;-74
2021/04/13 02:57:08;;;;;;;11.93;2.42;;;;;;;;;;5012836;28;20034;-74
2021/04/13 02:59:36;;;;;;;9.93;2.40;;;;;;;;;;5017903;28;20107;-74
2021/04/13 03:02:26;;;;;;;8.18;1.33;;;;;;;;;;5009584;28;20439;-74
2021/04/13 03:04:53;;;;;;;5.65;1.13;;;;;;;;;;5014400;28;20022;-74
2021/04/13 03:07:27;;;;;;;5.93;1.10;;;;;;;;;;5012292;28;20487;-74
2021/04/13 03:09:55;;;;;;;5.55;1.17;;;;;;;;;;5013737;28;20022;-74
2021/04/13 03:12:21;;;;;;;11.43;2.67;;;;;;;;;;5012429;28;20029;-73
2021/04/13 03:14:50;;;;;;;4.32;1.23;;;;;;;;;;5016926;28;20040;-73
2021/04/13 03:17:18;;;;;;;5.10;0.80;;;;;;;;;;5015344;28;20037;-73
2021/04/13 03:19:45;;;;;;;6.90;1.67;;;;;;;;;;5012044;28;20124;-73
2021/04/13 03:22:12;;;;;;;11.75;1.88;;;;;;;;;;5016807;28;20089;-74
2021/04/13 03:24:41;;;;;;;10.10;1.48;;;;;;;;;;5015710;28;20083;-73
2021/04/13 03:27:13;;;;;;;7.90;1.92;;;;;;;;;;5015859;28;20555;-74
2021/04/13 03:29:44;;;;;;;6.28;1.10;;;;;;;;;;5010131;28;20480;-74
2021/04/13 03:32:10;;;;;;;4.85;1.02;;;;;;;;;;5013908;28;20488;-73
2021/04/13 03:34:39;;;;;;;12.15;2.55;;;;;;;;;;5011159;28;20029;-73
2021/04/13 03:37:05;;;;;;;5.50;1.33;;;;;;;;;;5006956;28;20034;-73
2021/04/13 03:39:36;;;;;;;6.80;1.42;;;;;;;;;;5019067;28;20109;-74
2021/04/13 03:42:05;;;;;;;9.23;1.17;;;;;;;;;;5014662;28;20032;-73
2021/04/13 03:44:31;;;;;;;7.18;2.00;;;;;;;;;;5014430;28;20017;-72
2021/04/13 03:46:57;;;;;;;12.13;1.23;;;;;;;;;;5007921;28;20411;-72
2021/04/13 03:49:28;;;;;;;4.65;1.67;;;;;;;;;;5014762;28;20052;-72
2021/04/13 03:52:14;;;;;;;4.82;1.42;;;;;;;;;;5007583;28;20034;-71
2021/04/13 03:54:40;;;;;;;9.15;1.48;;;;;;;;;;5004319;28;20558;-71
2021/04/13 03:57:07;;;;;;;4.57;1.45;;;;;;;;;;5001241;28;20137;-72
2021/04/13 03:59:39;;;;;;;3.97;1.00;;;;;;;;;;5020520;28;20021;-72
2021/04/13 04:02:06;;;;;;;14.32;3.17;;;;;;;;;;5011112;28;20072;-71
2021/04/13 04:04:34;;;;;;;6.05;1.67;;;;;;;;;;5012688;28;20033;-72
2021/04/13 04:07:24;;;;;;;3.70;0.90;;;;;;;;;;5006755;28;20048;-71
2021/04/13 04:09:50;;;;;;;7.10;1.30;;;;;;;;;;5013785;28;20062;-72
2021/04/13 04:12:27;;;;;;;8.40;1.23;;;;;;;;;;5016868;28;20030;-72
2021/04/13 04:14:56;;;;;;;6.65;1.02;;;;;;;;;;5015193;28;20029;-72
2021/04/13 04:17:22;;;;;;;20.13;1.50;;;;;;;;;;5012339;28;20073;-72
2021/04/13 04:19:56;;;;;;;5.65;1.20;;;;;;;;;;5003011;28;20447;-72
2021/04/13 04:22:23;;;;;;;11.02;1.77;;;;;;;;;;5022227;28;20040;-72
2021/04/13 04:24:49;;;;;;;6.78;1.30;;;;;;;;;;5039547;28;20029;-72
2021/04/13 04:27:15;;;;;;;7.75;1.40;;;;;;;;;;5021949;28;20041;-72
2021/04/13 04:29:42;;;;;;;7.07;1.13;;;;;;;;;;5019159;28;20033;-71
2021/04/13 04:32:11;;;;;;;13.55;3.47;;;;;;;;;;5019768;28;20032;-72
2021/04/13 04:34:37;;;;;;;6.75;1.00;;;;;;;;;;5019299;28;20021;-72
2021/04/13 04:37:12;;;;;;;8.88;1.67;;;;;;;;;;5008840;28;20050;-72
2021/04/13 04:39:38;;;;;;;8.63;1.33;;;;;;;;;;5018032;28;20580;-72
2021/04/13 04:42:21;;;;;;;7.80;1.23;;;;;;;;;;5019128;28;20056;-72
2021/04/13 04:45:07;;;;;;;8.70;1.38;;;;;;;;;;5021020;28;20554;-72
2021/04/13 04:47:37;;;;;;;11.82;1.65;;;;;;;;;;5006818;28;20025;-72
2021/04/13 04:50:03;;;;;;;;;;;;;;;;;;5019615;28;20036;-72
2021/04/13 04:52:29;;;;;;;3.45;1.10;;;;;;;;;;5013245;28;19913;-71
2021/04/13 04:54:55;;;;;;;8.52;1.40;;;;;;;;;;5018221;28;20148;-71
2021/04/13 04:57:21;;;;;;;7.78;1.27;;;;;;;;;;5008403;28;20122;-72
2021/04/13 04:59:47;;;;;;;8.77;1.23;;;;;;;;;;5015721;28;20025;-71
2021/04/13 05:02:13;;;;;;;10.55;1.33;;;;;;;;;;5011287;28;20030;-72
2021/04/13 05:04:39;;;;;;;5.18;1.10;;;;;;;;;;5016291;28;20100;-72
2021/04/13 05:07:05;;;;;;;10.70;1.35;;;;;;;;;;5019119;28;20399;-72
2021/04/13 05:09:31;;;;;;;9.43;1.35;;;;;;;;;;5016826;28;20032;-72
2021/04/13 05:11:57;;;;;;;7.60;1.85;;;;;;;;;;5012235;28;20045;-72
2021/04/13 05:14:23;;;;;;;10.40;2.00;;;;;;;;;;5005454;28;20025;-72
2021/04/13 05:16:52;;;;;;;8.80;1.13;;;;;;;;;;5011970;28;20053;-72
2021/04/13 05:19:18;;;;;;;8.65;0.98;;;;;;;;;;5023349;28;20044;-72
2021/04/13 05:21:44;;;;;;;12.57;1.33;;;;;;;;;;5014170;28;20027;-72
2021/04/13 05:24:10;;;;;;;9.32;1.88;;;;;;;;;;5022411;28;20099;-71
2021/04/13 05:26:36;;;;;;;13.68;1.63;;;;;;;;;;5014958;28;20030;-72
2021/04/13 05:29:04;;;;;;;13.70;2.42;;;;;;;;;;5016345;28;20042;-72
2021/04/13 05:31:30;;;;;;;7.60;1.40;;;;;;;;;;5019352;28;20028;-74
2021/04/13 05:33:56;;;;;;;11.15;2.10;;;;;;;;;;5012259;28;20471;-75
2021/04/13 05:36:22;;;;;;;6.13;1.63;;;;;;;;;;5011671;28;20037;-75
2021/04/13 05:38:49;;;;;;;4.57;0.90;;;;;;;;;;5013015;28;20030;-74
2021/04/13 05:41:15;;;;;;;9.82;1.50;;;;;;;;;;5013890;28;20042;-71
2021/04/13 05:43:43;;;;;;;5.93;1.15;;;;;;;;;;5014372;28;20518;-72
2021/04/13 05:46:11;;;;;;;7.43;1.38;;;;;;;;;;5012031;28;20081;-72
2021/04/13 05:48:37;;;;;;;5.82;1.25;;;;;;;;;;5016287;28;20026;-72
2021/04/13 05:51:03;;;;;;;5.28;1.02;;;;;;;;;;5008025;28;20096;-72
2021/04/13 05:53:29;;;;;;;12.10;1.88;;;;;;;;;;5005264;28;20085;-72
2021/04/13 05:55:56;;;;;;;6.07;1.63;;;;;;;;;;5007996;28;20497;-71
2021/04/13 05:58:26;;;;;;;5.75;1.35;;;;;;;;;;5008468;28;20114;-72
2021/04/13 06:00:53;;;;;;;5.88;1.38;;;;;;;;;;5001639;28;20040;-72
2021/04/13 06:03:21;;;;;;;6.40;2.13;;;;;;;;;;4999371;28;20075;-72
2021/04/13 06:05:47;;;;;;;11.30;1.58;;;;;;;;;;5007983;28;20126;-70
2021/04/13 06:08:13;;;;;;;3.15;0.90;;;;;;;;;;5008862;28;20054;-72
2021/04/13 06:10:40;;;;;;;12.20;1.30;;;;;;;;;;5003229;28;20176;-74
2021/04/13 06:13:06;;;;;;;7.53;1.17;;;;;;;;;;5003295;28;20014;-74
2021/04/13 06:15:32;;;;;;;6.55;1.23;;;;;;;;;;5003673;28;20029;-74
2021/04/13 06:17:59;;;;;;;3.45;0.90;;;;;;;;;;4994824;28;20034;-74
2021/04/13 06:20:25;;;;;;;5.93;1.05;;;;;;;;;;5007318;28;20046;-74
2021/04/13 06:22:52;;;;;;;8.50;1.13;;;;;;;;;;5000653;28;20105;-73
2021/04/13 06:25:19;;;;;;;6.50;1.45;;;;;;;;;;5000035;28;20723;-74
2021/04/13 06:27:45;;;;;;;10.55;1.20;;;;;;;;;;5004822;28;20010;-74
2021/04/13 06:30:12;;;;;;;7.60;0.90;;;;;;;;;;5002275;28;20026;-72
2021/04/13 06:32:38;;;;;;;5.45;1.63;;;;;;;;;;4998564;28;20084;-74
2021/04/13 06:35:04;;;;;;;4.03;0.73;;;;;;;;;;5010919;28;20025;-74
2021/04/13 06:37:30;;;;;;;8.05;1.45;;;;;;;;;;5005028;28;20064;-72
2021/04/13 06:39:56;;;;;;;9.63;1.48;;;;;;;;;;5005845;28;20025;-70
2021/04/13 06:42:22;;;;;;;6.72;1.38;;;;;;;;;;5011139;28;20530;-73
2021/04/13 06:44:48;;;;;;;6.25;0.80;;;;;;;;;;5000217;28;20057;-72
2021/04/13 06:47:17;;;;;;;5.22;1.00;;;;;;;;;;5006791;28;20027;-71
2021/04/13 06:49:52;;;;;;;11.45;1.08;;;;;;;;;;5024122;28;20075;-73
2021/04/13 06:52:27;;;;;;;5.90;1.20;;;;;;;;;;5015189;28;20045;-75
2021/04/13 06:54:58;;;;;;;6.57;1.23;;;;;;;;;;5002162;28;20038;-74
2021/04/13 06:57:30;;;;;;;7.03;1.15;;;;;;;;;;4999974;28;20120;-73
2021/04/13 07:00:06;;;;;;;11.80;1.58;;;;;;;;;;4995872;28;20452;-76
2021/04/13 07:02:36;;;;;;;3.47;1.00;;;;;;;;;;5000102;28;20034;-75
2021/04/13 07:05:02;;;;;;;;;;;;;;;;;;5000943;28;20041;-76
2021/04/13 07:08:03;;;;;;;5.22;0.55;;;;;;;;;;4999643;28;19914;-76
2021/04/13 07:10:31;;;;;;;3.40;0.68;;;;;;;;;;4967054;28;20035;-76
2021/04/13 07:13:07;;;;;;;4.20;0.50;;;;;;;;;;4994984;28;20450;-76
2021/04/13 07:15:39;;;;;;;3.63;0.47;;;;;;;;;;5000780;28;20364;-76
2021/04/13 07:18:18;;;;;;;7.22;1.58;;;;;;;;;;5002368;28;20056;-77
2021/04/13 07:20:52;;;;;;;5.60;0.65;;;;;;;;;;5000368;28;20034;-76
2021/04/13 07:23:22;;;;;;;3.47;0.73;;;;;;;;;;4997776;28;20033;-76
2021/04/13 07:25:54;;;;;;;4.00;0.60;;;;;;;;;;5005087;28;20029;-76
2021/04/13 07:28:23;;;;;;;3.70;0.63;;;;;;;;;;4999220;28;20037;-77
2021/04/13 07:31:13;;;;;;;7.03;0.80;;;;;;;;;;5001908;28;20040;-76
2021/04/13 07:33:39;;;;;;;2.53;0.88;;;;;;;;;;4999473;28;20041;-76
2021/04/13 07:36:09;;;;;;;4.63;0.73;;;;;;;;;;4998950;28;20038;-76
2021/04/13 07:38:42;;;;;;;5.28;0.50;;;;;;;;;;5002262;28;20030;-76
2021/04/13 07:41:10;;;;;;;4.22;0.65;;;;;;;;;;5012592;28;21699;-76
2021/04/13 07:43:45;;;;;;;5.97;0.82;;;;;;;;;;5011092;28;20014;-76
2021/04/13 07:46:11;;;;;;;8.80;0.63;;;;;;;;;;5003800;28;20036;-77
2021/04/13 07:48:40;;;;;;;3.08;0.55;;;;;;;;;;5003955;28;20113;-76
2021/04/13 07:51:15;;;;;;;2.97;0.50;;;;;;;;;;5005946;28;20037;-74
2021/04/13 07:53:41;;;;;;;4.90;0.52;;;;;;;;;;5016137;28;20025;-73
2021/04/13 07:56:22;;;;;;;3.08;0.77;;;;;;;;;;5017040;28;20113;-76
2021/04/13 07:58:57;;;;;;;7.43;1.40;;;;;;;;;;5017071;28;20108;-75
2021/04/13 08:01:24;;;;;;;3.88;0.57;;;;;;;;;;5004333;28;20098;-74
2021/04/13 08:03:51;;;;;;;2.63;0.43;;;;;;;;;;5008745;28;20040;-73
2021/04/13 08:06:29;;;;;;;4.85;0.90;;;;;;;;;;5007465;28;20011;-74
2021/04/13 08:09:21;;;;;;;6.60;0.50;;;;;;;;;;5003767;28;20069;-73
2021/04/13 08:12:05;;;;;;;4.50;0.82;;;;;;;;;;4996047;28;20084;-73
2021/04/13 08:14:37;;;;;;;3.45;0.40;;;;;;;;;;5003418;28;20036;-72
2021/04/13 08:17:22;;;;;;;5.30;0.50;;;;;;;;;;5000846;28;20396;-73
2021/04/13 08:20:04;;;;;;;3.33;0.55;;;;;;;;;;5004625;28;20026;-73
2021/04/13 08:22:46;;;;;;;5.05;0.40;;;;;;;;;;5002140;28;20026;-73
2021/04/13 08:25:12;;;;;;;3.58;0.70;;;;;;;;;;5006268;28;20068;-72
2021/04/13 08:27:45;;;;;;;3.53;0.50;;;;;;;;;;4989629;28;20030;-72
2021/04/13 08:30:21;;;;;;;3.33;0.50;;;;;;;;;;4991371;28;20391;-73
2021/04/13 08:33:05;;;;;;;3.10;0.65;;;;;;;;;;4989692;28;20669;-73
2021/04/13 08:36:00;;;;;;;3.47;0.98;;;;;;;;;;5001293;28;20075;-72
2021/04/13 08:38:44;;;;;;;4.57;0.50;;;;;;;;;;4998252;28;20032;-71
2021/04/13 08:41:15;;;;;;;4.63;0.73;;;;;;;;;;4999944;28;20136;-70
2021/04/13 08:43:49;;;;;;;2.97;0.40;;;;;;;;;;5007970;28;20030;-73
2021/04/13 08:46:21;;;;;;;3.50;0.43;;;;;;;;;;5015726;28;20026;-70
2021/04/13 08:48:55;;;;;;;4.03;0.68;;;;;;;;;;5006668;28;20030;-74
2021/04/13 08:51:33;;;;;;;3.45;0.40;;;;;;;;;;5011232;28;20627;-73
2021/04/13 08:54:18;;;;;;;5.15;0.60;;;;;;;;;;5006736;28;20031;-73
2021/04/13 08:57:14;;;;;;;6.43;0.73;;;;;;;;;;5010520;28;20404;-71
2021/04/13 08:59:45;;;;;;;3.67;0.50;;;;;;;;;;5006594;28;20042;-73
2021/04/13 09:02:25;;;;;;;3.53;0.60;;;;;;;;;;5001272;28;20061;-75
2021/04/13 09:05:20;;;;;;;4.40;0.68;;;;;;;;;;5014374;28;20036;-75
2021/04/13 09:07:46;;;;;;;2.85;0.30;;;;;;;;;;4998643;28;20038;-75
2021/04/13 09:10:13;;;;;;;4.15;0.60;;;;;;;;;;5008258;28;20027;-75
2021/04/13 09:12:41;;;;;;;5.82;0.82;;;;;;;;;;5002153;28;20030;-75
2021/04/13 09:15:14;;;;;;;6.03;1.58;;;;;;;;;;5014987;28;20644;-75
2021/04/13 09:17:45;;;;;;;3.08;0.40;;;;;;;;;;5013032;28;20068;-75
2021/04/13 09:20:14;;;;;;;3.60;0.70;;;;;;;;;;5013794;28;20019;-75
2021/04/13 09:22:47;;;;;;;4.72;0.60;;;;;;;;;;5017749;28;20033;-74
2021/04/13 09:25:16;;;;;;;4.03;0.77;;;;;;;;;;5009865;28;20030;-75
2021/04/13 09:27:43;;;;;;;2.15;0.50;;;;;;;;;;5019198;28;20022;-73
2021/04/13 09:30:18;;;;;;;2.65;0.70;;;;;;;;;;5011887;28;20031;-74
2021/04/13 09:32:45;;;;;;;4.70;0.50;;;;;;;;;;5022911;28;20025;-74
2021/04/13 09:35:29;;;;;;;5.18;1.13;;;;;;;;;;5019297;28;20018;-74
2021/04/13 09:38:14;;;;;;;7.50;0.45;;;;;;;;;;5021938;28;20466;-73
2021/04/13 09:40:44;;;;;;;4.78;0.60;;;;;;;;;;5013354;28;20053;-73
2021/04/13 09:43:19;;;;;;;5.45;0.73;;;;;;;;;;5021866;28;20826;-74
2021/04/13 09:45:56;;;;;;;4.82;0.70;;;;;;;;;;5018855;28;20022;-72
2021/04/13 09:48:41;;;;;;;2.83;0.40;;;;;;;;;;5003949;28;20029;-70
2021/04/13 09:51:23;;;;;;;4.57;0.77;;;;;;;;;;5008057;28;20109;-68
2021/04/13 09:53:52;;;;;;;2.05;0.50;;;;;;;;;;5010545;28;20084;-68
2021/04/13 09:56:48;;;;;;;2.83;0.83;;;;;;;;;;5013158;28;20071;-69
2021/04/13 09:59:32;;;;;;;3.38;0.60;;;;;;;;;;4999640;28;20042;-69
2021/04/13 10:02:16;;;;;;;6.55;1.08;;;;;;;;;;5010641;28;20386;-68
2021/04/13 10:04:53;;;;;;;3.45;0.63;;;;;;;;;;5005974;28;20102;-68
2021/04/13 10:07:25;;;;;;;2.90;0.80;;;;;;;;;;5007155;28;20028;-68
2021/04/13 10:09:51;;;;;;;6.22;0.65;;;;;;;;;;5009049;28;20056;-68
2021/04/13 10:12:30;;;;;;;6.22;0.95;;;;;;;;;;5003104;28;20030;-68
2021/04/13 10:14:56;;;;;;;4.35;1.08;;;;;;;;;;5013462;28;20034;-72
2021/04/13 10:17:41;;;;;;;4.18;0.65;;;;;;;;;;4994127;28;20038;-69
2021/04/13 10:20:22;;;;;;;3.30;0.43;;;;;;;;;;4997014;28;20034;-69
2021/04/13 10:22:52;;;;;;;6.75;0.77;;;;;;;;;;4994422;28;20472;-69
2021/04/13 10:25:27;;;;;;;5.53;0.95;;;;;;;;;;4990896;28;20164;-70
2021/04/13 10:28:11;;;;;;;4.55;0.77;;;;;;;;;;4992968;28;20034;-69
2021/04/13 10:30:52;;;;;;;3.70;0.88;;;;;;;;;;4993046;28;20030;-69
2021/04/13 10:33:37;;;;;;;4.38;0.90;;;;;;;;;;4991988;28;20109;-68
2021/04/13 10:36:22;;;;;;;4.55;0.90;;;;;;;;;;5013396;28;20105;-69
2021/04/13 10:39:07;;;;;;;3.88;0.68;;;;;;;;;;4990616;28;20049;-71
2021/04/13 10:41:45;;;;;;;3.72;0.70;;;;;;;;;;4992292;28;20030;-71
2021/04/13 10:44:20;;;;;;;9.75;1.30;;;;;;;;;;4990022;28;20387;-72
2021/04/13 10:46:51;;;;;;;4.32;0.77;;;;;;;;;;4989658;28;20022;-72
2021/04/13 10:49:41;;;;;;;4.47;0.65;;;;;;;;;;4996021;28;21060;-72
2021/04/13 10:52:37;;;;;;;6.38;0.60;;;;;;;;;;4991722;28;20031;-70
2021/04/13 10:55:11;;;;;;;5.32;1.00;;;;;;;;;;4984166;28;20589;-69
2021/04/13 10:57:39;;;;;;;4.43;1.52;;;;;;;;;;4993649;28;20030;-69
2021/04/13 11:00:15;;;;;;;1.67;0.45;;;;;;;;;;5002039;28;20121;-66
2021/04/13 11:02:50;;;;;;;4.13;0.55;;;;;;;;;;4990939;28;20023;-69
2021/04/13 11:05:35;;;;;;;4.75;1.20;;;;;;;;;;4990982;28;20022;-69
2021/04/13 11:08:19;;;;;;;7.60;1.13;;;;;;;;;;4994046;28;20022;-69
2021/04/13 11:10:45;;;;;;;3.75;1.10;;;;;;;;;;4997686;28;20438;-69
2021/04/13 11:13:37;;;;;;;4.85;0.77;;;;;;;;;;5010158;28;20026;-71
2021/04/13 11:16:03;;;;;;;3.00;0.60;;;;;;;;;;5003502;28;20137;-72
2021/04/13 11:18:51;;;;;;;6.00;1.05;;;;;;;;;;5004448;28;20191;-72
2021/04/13 11:21:23;;;;;;;5.65;0.63;;;;;;;;;;4997451;28;20044;-72
2021/04/13 11:23:53;;;;;;;5.82;0.70;;;;;;;;;;4999316;28;20076;-71
2021/04/13 11:26:19;;;;;;;;;;;;;;;;;;5009188;28;20013;-73
2021/04/13 11:29:04;;;;;;;3.03;0.88;;;;;;;;;;5010081;28;19913;-70
2021/04/13 11:31:53;;;;;;;5.38;0.60;;;;;;;;;;5001648;28;20060;-70
2021/04/13 11:34:39;;;;;;;3.53;0.60;;;;;;;;;;5007136;28;20045;-71
2021/04/13 11:37:08;;;;;;;3.58;0.80;;;;;;;;;;5005517;28;20436;-71
2021/04/13 11:39:38;;;;;;;3.72;1.20;;;;;;;;;;5012407;28;20053;-72
2021/04/13 11:42:12;;;;;;;4.63;1.08;;;;;;;;;;4996763;28;20038;-70
2021/04/13 11:44:39;;;;;;;4.25;0.75;;;;;;;;;;5008287;28;20017;-70
2021/04/13 11:47:12;;;;;;;8.13;1.02;;;;;;;;;;5008932;28;20295;-71
2021/04/13 11:50:10;;;;;;;2.80;0.60;;;;;;;;;;4998780;28;20816;-71
2021/04/13 11:52:37;;;;;;;2.70;0.60;;;;;;;;;;4993118;28;20080;-71
2021/04/13 11:55:03;;;;;;;3.13;0.65;;;;;;;;;;5003719;28;20365;-71
2021/04/13 11:57:35;;;;;;;2.92;0.98;;;;;;;;;;5008697;28;20029;-71
2021/04/13 12:00:10;;;;;;;4.70;0.60;;;;;;;;;;4997705;28;20126;-72
2021/04/13 12:02:38;;;;;;;3.25;0.73;;;;;;;;;;4998388;28;20022;-72
2021/04/13 12:05:05;;;;;;;3.83;0.70;;;;;;;;;;5007919;28;20100;-72
2021/04/13 12:07:48;;;;;;;5.68;0.82;;;;;;;;;;5001104;28;20023;-71
2021/04/13 12:10:34;;;;;;;4.32;0.73;;;;;;;;;;4997805;28;20023;-72
2021/04/13 12:12:59;;;;;;;2.85;1.05;;;;;;;;;;4999019;28;20436;-72
2021/04/13 12:15:25;;;;;;;3.42;0.80;;;;;;;;;;5000185;28;20081;-72
2021/04/13 12:17:56;;;;;;;4.80;0.60;;;;;;;;;;5000100;28;20126;-73
2021/04/13 12:22:54;;;;;;;3.90;1.00;;;;;;;;;;5001329;28;20057;-72
2021/04/13 12:25:39;;;;;;;3.27;0.93;;;;;;;;;;5007918;28;20474;-72
2021/04/13 12:28:08;;;;;;;1.58;0.55;;;;;;;;;;5017195;28;20033;-73
2021/04/13 12:30:43;;;;;;;1.77;0.40;;;;;;;;;;5002644;28;20032;-72
2021/04/13 12:33:10;;;;;;;2.78;0.38;;;;;;;;;;5018257;28;20104;-71
2021/04/13 12:35:48;;;;;;;2.97;0.63;;;;;;;;;;5008243;28;20030;-72
2021/04/13 12:38:33;;;;;;;4.10;0.70;;;;;;;;;;5008388;28;20045;-73
2021/04/13 12:41:10;;;;;;;3.83;0.65;;;;;;;;;;5010398;28;20071;-71
2021/04/13 12:43:42;;;;;;;2.90;0.60;;;;;;;;;;5011457;28;20509;-71
2021/04/13 12:46:29;;;;;;;1.38;0.43;;;;;;;;;;5008720;28;20029;-72
2021/04/13 12:48:56;;;;;;;1.95;0.65;;;;;;;;;;4997317;28;20452;-71
2021/04/13 12:51:33;;;;;;;2.80;0.57;;;;;;;;;;5014275;28;20171;-71
2021/04/13 12:54:18;;;;;;;1.73;0.70;;;;;;;;;;5011164;28;20101;-71
2021/04/13 12:56:51;;;;;;;2.97;0.88;;;;;;;;;;5018558;28;20030;-74
2021/04/13 12:59:21;;;;;;;7.00;0.82;;;;;;;;;;5010049;28;20044;-70
2021/04/13 13:01:47;;;;;;;1.65;0.30;;;;;;;;;;5012873;28;20564;-70
2021/04/13 13:04:15;;;;;;;1.92;0.60;;;;;;;;;;5003736;28;20018;-70
2021/04/13 13:06:46;;;;;;;2.80;0.63;;;;;;;;;;5004174;28;20297;-70
2021/04/13 13:09:19;;;;;;;2.75;0.60;;;;;;;;;;5014556;28;20041;-70
2021/04/13 13:11:46;;;;;;;1.67;0.70;;;;;;;;;;5009114;28;20388;-69
2021/04/13 13:14:14;;;;;;;2.28;0.57;;;;;;;;;;5016885;28;20042;-69
2021/04/13 13:16:40;;;;;;;2.58;0.60;;;;;;;;;;5008874;28;20018;-70
2021/04/13 13:19:08;;;;;;;3.80;0.88;;;;;;;;;;5016033;28;20042;-69
2021/04/13 13:21:50;;;;;;;3.53;1.00;;;;;;;;;;5017697;28;20022;-69
2021/04/13 13:24:20;;;;;;;2.65;1.00;;;;;;;;;;5009614;28;20560;-70
2021/04/13 13:26:46;;;;;;;3.28;0.85;;;;;;;;;;5004915;28;20038;-73
2021/04/13 13:29:12;;;;;;;4.22;0.80;;;;;;;;;;5005775;28;20403;-73
2021/04/13 13:31:39;;;;;;;4.65;0.70;;;;;;;;;;5000429;28;20518;-68
2021/04/13 13:34:16;;;;;;;2.92;0.50;;;;;;;;;;4997907;28;20069;-73
2021/04/13 13:36:44;;;;;;;3.00;0.70;;;;;;;;;;4999431;28;20030;-72
2021/04/13 13:39:12;;;;;;;1.65;0.57;;;;;;;;;;5014437;28;20581;-73
2021/04/13 13:41:44;;;;;;;1.55;0.60;;;;;;;;;;5003020;28;20105;-72
2021/04/13 13:44:28;;;;;;;2.40;0.52;;;;;;;;;;5004250;28;20062;-72
2021/04/13 13:47:04;;;;;;;3.67;0.82;;;;;;;;;;4999106;28;20014;-72
2021/04/13 13:49:41;;;;;;;1.80;0.68;;;;;;;;;;5005059;28;20029;-72
2021/04/13 13:52:12;;;;;;;3.42;0.85;;;;;;;;;;5004920;28;20062;-72
2021/04/13 13:54:38;;;;;;;3.60;1.50;;;;;;;;;;5006481;28;20105;-75
2021/04/13 13:57:10;;;;;;;3.15;1.00;;;;;;;;;;5006130;28;20037;-74
2021/04/13 13:59:45;;;;;;;6.82;1.20;;;;;;;;;;5018658;28;20037;-70
2021/04/13 14:02:14;;;;;;;2.58;1.10;;;;;;;;;;5008344;28;20029;-73
2021/04/13 14:04:41;;;;;;;4.63;1.48;;;;;;;;;;4996824;28;20038;-70
2021/04/13 14:07:08;;;;;;;2.75;1.15;;;;;;;;;;5008556;28;20030;-76
2021/04/13 14:09:35;;;;;;;2.08;1.17;;;;;;;;;;5024557;28;20028;-72
2021/04/13 14:12:20;;;;;;;3.92;1.00;;;;;;;;;;4994010;28;20038;-73
2021/04/13 14:14:46;;;;;;;3.58;1.15;;;;;;;;;;5002517;28;20101;-71
2021/04/13 14:17:14;;;;;;;5.00;0.90;;;;;;;;;;5006020;28;20161;-72
2021/04/13 14:19:41;;;;;;;1.73;0.85;;;;;;;;;;5016848;28;20558;-73
2021/04/13 14:22:10;;;;;;;4.40;0.60;;;;;;;;;;5008888;28;20022;-73
2021/04/13 14:24:41;;;;;;;3.10;0.55;;;;;;;;;;5008082;28;20440;-72
2021/04/13 14:27:07;;;;;;;2.35;0.63;;;;;;;;;;5005955;28;20030;-72
2021/04/13 14:29:34;;;;;;;5.95;1.00;;;;;;;;;;5002436;28;20026;-71
2021/04/13 14:32:00;;;;;;;3.83;1.10;;;;;;;;;;5011422;28;20033;-71
2021/04/13 14:34:27;;;;;;;3.85;1.13;;;;;;;;;;5009112;28;20479;-71
2021/04/13 14:37:04;;;;;;;2.78;0.85;;;;;;;;;;5007839;28;20487;-72
2021/04/13 14:39:31;;;;;;;5.18;1.05;;;;;;;;;;5007227;28;20033;-72
2021/04/13 14:41:57;;;;;;;3.30;1.00;;;;;;;;;;5007310;28;20058;-72
2021/04/13 14:44:23;;;;;;;1.95;0.70;;;;;;;;;;4997928;28;20396;-72
2021/04/13 14:46:48;;;;;;;1.45;1.00;;;;;;;;;;4998443;28;20037;-72
2021/04/13 14:49:14;;;;;;;3.13;1.10;;;;;;;;;;5007161;28;20117;-72
2021/04/13 14:51:40;;;;;;;3.33;0.93;;;;;;;;;;5007556;28;20033;-72
2021/04/13 14:54:07;;;;;;;1.83;0.73;;;;;;;;;;5002596;28;20092;-71
2021/04/13 14:56:34;;;;;;;2.30;0.70;;;;;;;;;;4999256;28;20053;-72
2021/04/13 14:59:00;;;;;;;2.40;0.77;;;;;;;;;;4994475;28;20026;-72
2021/04/13 15:01:27;;;;;;;2.70;0.88;;;;;;;;;;4995439;28;20088;-72
2021/04/13 15:03:53;;;;;;;2.67;0.82;;;;;;;;;;4997401;28;20018;-72
2021/04/13 15:06:19;;;;;;;2.50;0.50;;;;;;;;;;5002362;28;20034;-71
2021/04/13 15:08:46;;;;;;;5.00;0.90;;;;;;;;;;5005113;28;20030;-73
2021/04/13 15:11:12;;;;;;;4.68;1.05;;;;;;;;;;5004059;28;20442;-73
2021/04/13 15:13:38;;;;;;;3.92;0.85;;;;;;;;;;5004867;28;20021;-73
2021/04/13 15:16:04;;;;;;;0.80;0.38;;;;;;;;;;5000076;28;20034;-73